Time;durP1;ratioP1;P1;durP2;ratioP2;P2;SDS_P1;SDS_P2;PMS_P1;PMS_P2;Temp;Humidity;BMP_temperature;BMP_pressure;BME280_temperature;BME280_humidity;BME280_pressure;Samples;Min_cycle;Max_cycle;Signal;HPM_P1;HPM_P2
2021/11/30 00:01:01;;;;;;;13.52;8.20;;;9.70;83.10;;;;;;5123877;27;20024;-79
2021/11/30 00:03:26;;;;;;;17.90;9.60;;;9.80;83.10;;;;;;5123774;27;20438;-79
2021/11/30 00:05:52;;;;;;;15.40;8.63;;;9.70;83.10;;;;;;5125439;27;20023;-80
2021/11/30 00:08:19;;;;;;;15.73;8.30;;;9.70;83.60;;;;;;5125851;27;20027;-79
2021/11/30 00:10:46;;;;;;;13.57;8.60;;;9.80;83.10;;;;;;5144467;27;20023;-79
2021/11/30 00:13:18;;;;;;;12.65;7.93;;;9.80;83.10;;;;;;5126150;27;20034;-79
2021/11/30 00:15:45;;;;;;;14.45;8.13;;;9.70;83.00;;;;;;5144272;27;20052;-79
2021/11/30 00:18:12;;;;;;;14.50;8.23;;;9.80;83.00;;;;;;5124193;27;20044;-79
2021/11/30 00:20:39;;;;;;;13.73;7.95;;;9.80;83.00;;;;;;5125125;27;20057;-79
2021/11/30 00:23:06;;;;;;;14.48;8.75;;;9.80;83.10;;;;;;5124818;27;20026;-80
2021/11/30 00:25:32;;;;;;;12.00;7.63;;;9.80;83.00;;;;;;5124778;27;20019;-78
2021/11/30 00:27:58;;;;;;;10.73;7.68;;;9.80;83.10;;;;;;5141202;27;20532;-79
2021/11/30 00:30:24;;;;;;;11.80;7.70;;;9.80;83.10;;;;;;5123810;27;20039;-78
2021/11/30 00:32:50;;;;;;;11.10;7.65;;;9.80;83.00;;;;;;5123572;27;20388;-79
2021/11/30 00:35:16;;;;;;;11.57;7.38;;;9.80;83.10;;;;;;5142045;27;20369;-78
2021/11/30 00:37:42;;;;;;;11.18;7.70;;;9.90;83.10;;;;;;5122890;27;20026;-78
2021/11/30 00:40:08;;;;;;;11.45;7.05;;;9.70;83.00;;;;;;5141274;27;20477;-78
2021/11/30 00:42:35;;;;;;;11.88;7.57;;;9.80;83.10;;;;;;5141119;27;20023;-79
2021/11/30 00:45:04;;;;;;;9.85;6.97;;;9.80;83.10;;;;;;5141584;27;20024;-78
2021/11/30 00:47:30;;;;;;;11.43;7.00;;;9.80;83.10;;;;;;5121097;27;20404;-78
2021/11/30 00:49:59;;;;;;;11.10;6.53;;;9.80;83.10;;;;;;5122422;27;20504;-78
2021/11/30 00:52:25;;;;;;;10.55;6.60;;;9.80;83.10;;;;;;5121381;27;20095;-80
2021/11/30 00:54:51;;;;;;;10.80;6.55;;;9.80;83.10;;;;;;5140423;27;20015;-78
2021/11/30 00:57:18;;;;;;;9.55;6.47;;;9.80;83.10;;;;;;5120814;27;20068;-79
2021/11/30 00:59:44;;;;;;;10.63;6.70;;;9.70;83.00;;;;;;5121108;27;20027;-78
2021/11/30 01:02:09;;;;;;;10.60;6.25;;;9.80;83.00;;;;;;5139613;27;20023;-78
2021/11/30 01:04:35;;;;;;;9.10;5.97;;;9.80;83.00;;;;;;5120543;27;20035;-78
2021/11/30 01:07:01;;;;;;;7.60;5.47;;;9.60;82.90;;;;;;5119738;27;20039;-79
2021/11/30 01:09:27;;;;;;;8.38;6.10;;;9.80;83.00;;;;;;5120582;27;20030;-78
2021/11/30 01:11:53;;;;;;;9.35;5.80;;;9.80;82.90;;;;;;5138486;27;20031;-78
2021/11/30 01:14:20;;;;;;;9.75;5.97;;;9.80;82.90;;;;;;5120155;27;20118;-78
2021/11/30 01:16:45;;;;;;;7.80;5.57;;;9.90;82.90;;;;;;5119163;27;20068;-78
2021/11/30 01:19:12;;;;;;;8.02;5.60;;;9.80;82.90;;;;;;5138493;27;20027;-78
2021/11/30 01:21:38;;;;;;;8.25;5.15;;;9.80;82.90;;;;;;5119432;27;20126;-78
2021/11/30 01:24:05;;;;;;;10.85;5.32;;;9.80;82.90;;;;;;5119057;27;20397;-78
2021/11/30 01:26:31;;;;;;;8.63;5.25;;;9.80;82.90;;;;;;5119145;27;20023;-78
2021/11/30 01:28:56;;;;;;;8.85;4.68;;;9.80;82.90;;;;;;5118447;27;20042;-78
2021/11/30 01:31:22;;;;;;;9.13;4.90;;;9.80;82.90;;;;;;5136815;27;20063;-78
2021/11/30 01:33:48;;;;;;;13.13;5.35;;;9.70;82.90;;;;;;5137455;27;20027;-78
2021/11/30 01:36:13;;;;;;;16.23;5.13;;;9.80;83.00;;;;;;5118216;27;20075;-78
2021/11/30 01:38:39;;;;;;;11.55;4.97;;;9.90;83.00;;;;;;5136599;27;20092;-79
2021/11/30 01:41:07;;;;;;;7.72;4.97;;;9.80;82.80;;;;;;5117559;27;20027;-78
2021/11/30 01:43:41;;;;;;;8.50;4.60;;;9.90;82.60;;;;;;5118244;27;20030;-78
2021/11/30 01:46:13;;;;;;;8.20;4.70;;;9.90;82.60;;;;;;5117419;27;20060;-78
2021/11/30 01:51:26;;;;;;;18.00;4.90;;;9.80;82.40;;;;;;5135928;27;20034;-78
2021/11/30 01:53:53;;;;;;;13.45;4.68;;;9.90;82.40;;;;;;5116987;27;20020;-79
2021/11/30 01:56:20;;;;;;;14.13;5.50;;;9.90;82.30;;;;;;5117495;27;20026;-78
2021/11/30 01:58:47;;;;;;;15.07;4.53;;;10.00;82.30;;;;;;5116485;27;20015;-78
2021/11/30 02:01:13;;;;;;;9.57;4.32;;;9.90;82.20;;;;;;5117017;27;20403;-77
2021/11/30 02:03:40;;;;;;;12.07;4.22;;;9.90;82.20;;;;;;5135794;27;20468;-78
2021/11/30 02:06:06;;;;;;;11.60;4.22;;;9.80;82.10;;;;;;5135708;27;20500;-78
2021/11/30 02:08:31;;;;;;;12.25;4.10;;;10.00;82.20;;;;;;5116342;27;20019;-78
2021/11/30 02:10:57;;;;;;;9.35;4.00;;;10.00;82.20;;;;;;5116639;27;20019;-78
2021/11/30 02:13:24;;;;;;;6.68;3.88;;;9.90;82.00;;;;;;5135329;27;20106;-78
2021/11/30 02:15:53;;;;;;;9.02;4.03;;;10.00;82.10;;;;;;5134941;27;20046;-78
2021/11/30 02:18:23;;;;;;;9.73;4.35;;;9.90;82.00;;;;;;5116551;27;20023;-78
2021/11/30 02:20:56;;;;;;;6.47;3.67;;;9.80;81.90;;;;;;5134662;27;20019;-78
2021/11/30 02:26:09;;;;;;;7.05;3.65;;;9.90;82.00;;;;;;5134859;27;20024;-78
2021/11/30 02:28:36;;;;;;;5.85;3.60;;;9.90;81.90;;;;;;5115946;27;20023;-78
2021/11/30 02:31:02;;;;;;;7.65;3.80;;;10.00;82.60;;;;;;5116103;28;20037;-78
2021/11/30 02:33:28;;;;;;;4.63;3.03;;;9.90;81.90;;;;;;5115853;28;20091;-78
2021/11/30 02:35:55;;;;;;;12.70;3.72;;;9.80;81.90;;;;;;5116011;27;20077;-77
2021/11/30 02:38:20;;;;;;;30.67;4.65;;;9.70;81.80;;;;;;5115417;27;20023;-78
2021/11/30 02:40:46;;;;;;;32.92;5.22;;;9.70;81.90;;;;;;5134413;27;20038;-79
2021/11/30 02:43:12;;;;;;;32.65;5.30;;;9.70;81.90;;;;;;5134029;27;20071;-78
2021/11/30 02:45:37;;;;;;;32.97;4.78;;;9.60;81.80;;;;;;5134036;28;20076;-78
2021/11/30 02:48:03;;;;;;;22.17;4.90;;;9.70;81.80;;;;;;5115541;28;20015;-78
2021/11/30 02:50:38;;;;;;;17.80;4.30;;;9.70;81.70;;;;;;5116260;27;20110;-78
2021/11/30 02:53:03;;;;;;;16.48;4.35;;;9.70;81.70;;;;;;5119665;27;20072;-78
2021/11/30 02:55:29;;;;;;;13.98;4.28;;;9.70;81.60;;;;;;5124039;27;20027;-79
2021/11/30 02:57:55;;;;;;;15.60;4.32;;;9.70;81.60;;;;;;5144259;27;20027;-80
2021/11/30 03:00:20;;;;;;;12.82;3.67;;;9.70;81.50;;;;;;5144235;27;20058;-79
2021/11/30 03:02:47;;;;;;;12.70;3.95;;;9.70;81.30;;;;;;5126041;27;20039;-79
2021/11/30 03:05:12;;;;;;;11.38;4.22;;;9.70;81.10;;;;;;5144766;27;20021;-79
2021/11/30 03:07:39;;;;;;;11.02;4.40;;;9.70;81.10;;;;;;5143907;27;20031;-79
2021/11/30 03:10:17;;;;;;;11.35;4.38;;;9.60;81.00;;;;;;5125655;27;20034;-79
2021/11/30 03:12:44;;;;;;;10.93;4.03;;;9.70;81.00;;;;;;5125149;27;20080;-78
2021/11/30 03:15:13;;;;;;;10.98;4.30;;;9.70;80.90;;;;;;5124679;27;20019;-78
2021/11/30 03:17:48;;;;;;;9.50;3.90;;;9.60;80.80;;;;;;5139965;27;20060;-78
2021/11/30 03:20:15;;;;;;;8.85;4.43;;;9.60;80.70;;;;;;5123822;27;20076;-78
2021/11/30 03:22:41;;;;;;;9.52;4.03;;;9.70;80.60;;;;;;5123689;27;20129;-78
2021/11/30 03:25:09;;;;;;;10.07;3.88;;;9.70;80.50;;;;;;5121901;27;20520;-79
2021/11/30 03:27:35;;;;;;;7.82;3.70;;;9.70;80.40;;;;;;5140372;27;20432;-79
2021/11/30 03:30:03;;;;;;;8.05;3.75;;;9.60;80.30;;;;;;5122018;27;20122;-79
2021/11/30 03:35:15;;;;;;;9.30;3.90;;;9.70;80.30;;;;;;5116506;27;20036;-78
2021/11/30 03:37:41;;;;;;;7.75;3.22;;;9.60;80.10;;;;;;5119010;27;20026;-78
2021/11/30 03:40:10;;;;;;;9.82;3.67;;;9.60;80.00;;;;;;5121422;27;20076;-79
2021/11/30 03:42:36;;;;;;;9.48;3.50;;;9.60;79.90;;;;;;5138730;27;20082;-79
2021/11/30 03:45:04;;;;;;;10.20;4.07;;;9.70;79.90;;;;;;5120597;27;20043;-78
2021/11/30 03:47:30;;;;;;;8.63;4.03;;;9.60;79.80;;;;;;5120038;27;20023;-78
2021/11/30 03:49:55;;;;;;;7.25;3.75;;;9.70;79.70;;;;;;5119743;27;20118;-78
2021/11/30 03:52:21;;;;;;;9.40;3.92;;;9.60;79.50;;;;;;5137718;27;20023;-78
2021/11/30 03:54:46;;;;;;;8.15;3.88;;;9.70;79.60;;;;;;5138166;27;20023;-80
2021/11/30 03:57:12;;;;;;;10.68;4.07;;;9.70;79.50;;;;;;5116038;27;20072;-79
2021/11/30 03:59:38;;;;;;;8.65;4.38;;;9.70;80.00;;;;;;5115605;27;20132;-80
2021/11/30 04:02:03;;;;;;;8.38;4.28;;;9.60;79.40;;;;;;5112721;27;20114;-78
2021/11/30 04:04:33;;;;;;;7.47;3.90;;;9.60;79.30;;;;;;5124051;27;20092;-79
2021/11/30 04:06:59;;;;;;;8.10;4.15;;;9.60;79.20;;;;;;5134331;27;20121;-77
2021/11/30 04:09:26;;;;;;;9.07;4.30;;;9.60;79.10;;;;;;5098479;28;20039;-79
2021/11/30 04:11:53;;;;;;;7.93;4.75;;;9.60;79.00;;;;;;5095248;28;20102;-80
2021/11/30 04:14:18;;;;;;;7.43;4.30;;;9.70;78.90;;;;;;5114359;28;20034;-79
2021/11/30 04:16:44;;;;;;;9.20;4.80;;;9.60;78.80;;;;;;5113898;28;20024;-80
2021/11/30 04:19:10;;;;;;;7.15;4.63;;;9.60;78.70;;;;;;5095881;28;20893;-80
2021/11/30 04:21:36;;;;;;;8.20;4.57;;;9.60;78.70;;;;;;5096556;28;20031;-79
2021/11/30 04:24:02;;;;;;;7.97;4.38;;;9.60;78.60;;;;;;5096323;28;20031;-79
2021/11/30 04:26:28;;;;;;;7.13;4.35;;;9.60;78.50;;;;;;5096472;28;20023;-80
2021/11/30 04:28:55;;;;;;;9.13;4.57;;;9.60;78.50;;;;;;5094907;28;20087;-78
2021/11/30 04:31:21;;;;;;;8.15;4.28;;;9.60;78.40;;;;;;5094665;28;20384;-80
2021/11/30 04:33:47;;;;;;;7.55;4.32;;;9.60;78.40;;;;;;5112741;28;20032;-79
2021/11/30 04:36:12;;;;;;;7.75;4.30;;;9.50;78.20;;;;;;5095002;28;20023;-81
2021/11/30 04:38:39;;;;;;;7.55;4.47;;;9.60;78.10;;;;;;5112482;28;20028;-78
2021/11/30 04:41:06;;;;;;;7.43;4.57;;;9.60;78.20;;;;;;5094806;28;20028;-81
2021/11/30 04:43:35;;;;;;;7.15;4.05;;;9.60;78.30;;;;;;5094796;28;20028;-81
2021/11/30 04:46:17;;;;;;;7.50;4.40;;;9.60;78.30;;;;;;5116595;28;20035;-79
2021/11/30 04:48:52;;;;;;;7.10;4.72;;;9.60;78.10;;;;;;5098134;28;20032;-79
2021/11/30 04:51:17;;;;;;;7.57;4.55;;;9.60;78.20;;;;;;5097826;28;20479;-79
2021/11/30 04:53:45;;;;;;;6.35;4.00;;;9.60;78.00;;;;;;5098095;28;20090;-78
2021/11/30 04:56:14;;;;;;;6.57;3.90;;;9.60;78.10;;;;;;5097705;28;20376;-79
2021/11/30 04:58:40;;;;;;;7.05;4.20;;;9.50;78.00;;;;;;5097615;28;20039;-78
2021/11/30 05:01:06;;;;;;;6.78;4.10;;;9.60;78.10;;;;;;5097620;28;20028;-79
2021/11/30 05:03:32;;;;;;;7.00;4.03;;;9.60;78.10;;;;;;5115804;28;20038;-78
2021/11/30 05:05:58;;;;;;;7.50;4.15;;;9.60;78.10;;;;;;5097779;28;20027;-78
2021/11/30 05:08:23;;;;;;;7.95;4.30;;;9.50;78.50;;;;;;5115573;28;20027;-79
2021/11/30 05:10:49;;;;;;;8.63;4.22;;;9.60;78.00;;;;;;5115847;28;20161;-79
2021/11/30 05:13:14;;;;;;;6.35;3.95;;;9.60;78.00;;;;;;5096501;28;20035;-78
2021/11/30 05:15:40;;;;;;;6.43;3.90;;;9.60;78.00;;;;;;5118401;27;20026;-77
2021/11/30 05:18:06;;;;;;;5.95;3.85;;;9.60;78.10;;;;;;5117261;27;20377;-79
2021/11/30 05:20:32;;;;;;;6.80;4.00;;;9.60;78.00;;;;;;5136135;27;20556;-78
2021/11/30 05:22:58;;;;;;;6.93;3.80;;;9.60;78.10;;;;;;5117062;27;20353;-78
2021/11/30 05:25:32;;;;;;;5.82;3.53;;;9.60;78.10;;;;;;5117325;27;20019;-78
2021/11/30 05:27:57;;;;;;;6.25;3.75;;;9.60;78.00;;;;;;5116950;27;20062;-78
2021/11/30 05:30:24;;;;;;;6.53;3.70;;;9.60;78.00;;;;;;5117404;27;20031;-78
2021/11/30 05:32:50;;;;;;;5.78;3.50;;;9.60;78.10;;;;;;5116332;27;20031;-78
2021/11/30 05:35:16;;;;;;;6.00;3.78;;;9.60;78.00;;;;;;5135201;27;20019;-78
2021/11/30 05:37:42;;;;;;;8.48;3.50;;;9.60;78.00;;;;;;5116438;27;20053;-79
2021/11/30 05:40:09;;;;;;;5.97;3.70;;;9.60;78.00;;;;;;5116876;27;20104;-78
2021/11/30 05:42:34;;;;;;;5.93;3.60;;;9.50;77.90;;;;;;5116601;27;20030;-79
2021/11/30 05:45:00;;;;;;;5.95;3.40;;;9.60;78.00;;;;;;5135405;27;20396;-78
2021/11/30 05:47:25;;;;;;;6.47;3.70;;;9.40;78.00;;;;;;5116032;27;20126;-78
2021/11/30 05:49:51;;;;;;;5.85;3.38;;;9.60;78.20;;;;;;5116669;27;20019;-78
2021/11/30 05:52:17;;;;;;;5.82;3.60;;;9.50;78.00;;;;;;5116589;27;20456;-78
2021/11/30 05:54:42;;;;;;;6.15;3.45;;;9.60;78.10;;;;;;5116675;27;20026;-79
2021/11/30 05:57:16;;;;;;;6.00;3.15;;;9.60;78.10;;;;;;5116475;27;20027;-78
2021/11/30 05:59:43;;;;;;;5.53;3.30;;;9.60;78.10;;;;;;5116593;27;20045;-84
2021/11/30 06:02:11;;;;;;;5.65;3.20;;;9.60;78.20;;;;;;5115930;27;20080;-80
2021/11/30 06:04:37;;;;;;;5.90;3.30;;;9.60;78.20;;;;;;5116129;27;20027;-79
2021/11/30 06:07:03;;;;;;;5.32;3.08;;;9.40;78.10;;;;;;5134118;27;20050;-78
2021/11/30 06:09:28;;;;;;;5.28;2.78;;;9.60;78.20;;;;;;5115630;27;20066;-79
2021/11/30 06:11:54;;;;;;;5.93;3.10;;;9.60;78.20;;;;;;5137733;22;20034;-78
2021/11/30 06:14:20;;;;;;;5.13;3.10;;;9.60;78.30;;;;;;5072819;28;20036;-79
2021/11/30 06:16:45;;;;;;;4.78;2.88;;;9.50;78.20;;;;;;5073942;28;20039;-79
2021/11/30 06:19:13;;;;;;;5.95;3.20;;;9.60;78.30;;;;;;5075068;28;20076;-84
2021/11/30 06:21:39;;;;;;;5.88;2.85;;;9.50;78.40;;;;;;5074999;28;20024;-79
2021/11/30 06:24:05;;;;;;;6.95;3.20;;;9.50;78.20;;;;;;5094485;28;20030;-81
2021/11/30 06:26:30;;;;;;;6.90;2.90;;;9.50;78.50;;;;;;5094164;28;20114;-79
2021/11/30 06:28:56;;;;;;;6.90;2.97;;;9.50;78.80;;;;;;5094899;28;20412;-80
2021/11/30 06:31:22;;;;;;;5.43;2.80;;;9.50;79.00;;;;;;5094953;28;20028;-82
2021/11/30 06:33:47;;;;;;;6.57;2.80;;;9.50;79.10;;;;;;5094806;28;20023;-79
2021/11/30 06:36:13;;;;;;;4.57;2.65;;;9.50;79.10;;;;;;5094778;28;20016;-82
2021/11/30 06:38:39;;;;;;;6.68;2.80;;;9.40;79.10;;;;;;5094779;28;20016;-79
2021/11/30 06:41:04;;;;;;;6.35;2.60;;;9.50;79.20;;;;;;5094874;28;20027;-78
2021/11/30 06:43:30;;;;;;;9.70;2.85;;;9.60;79.40;;;;;;5094935;28;20028;-79
2021/11/30 06:45:56;;;;;;;9.48;2.90;;;9.60;79.30;;;;;;5093809;28;20105;-79
2021/11/30 06:48:21;;;;;;;6.18;3.00;;;9.50;79.20;;;;;;5093457;28;20028;-79
2021/11/30 06:50:48;;;;;;;6.93;2.88;;;9.50;79.40;;;;;;5093067;28;20472;-79
2021/11/30 06:53:14;;;;;;;5.45;2.80;;;9.60;79.50;;;;;;5094195;28;20534;-78
2021/11/30 06:55:40;;;;;;;5.28;2.88;;;9.50;79.60;;;;;;5112412;28;20024;-79
2021/11/30 06:58:05;;;;;;;6.20;2.60;;;9.50;79.50;;;;;;5093880;28;20130;-79
2021/11/30 07:00:31;;;;;;;4.63;2.80;;;9.60;79.60;;;;;;5093962;28;20177;-79
2021/11/30 07:02:58;;;;;;;4.60;2.80;;;9.60;79.70;;;;;;5112268;28;20036;-79
2021/11/30 07:05:30;;;;;;;4.93;2.80;;;9.60;79.80;;;;;;5094187;28;20023;-78
2021/11/30 07:10:46;;;;;;;4.88;2.90;;;9.60;79.90;;;;;;5112495;28;20092;-79
2021/11/30 07:13:26;;;;;;;4.38;2.70;;;9.50;79.90;;;;;;5093755;28;20444;-79
2021/11/30 07:16:04;;;;;;;5.63;3.53;;;9.50;79.90;;;;;;5094117;28;20493;-79
2021/11/30 07:18:31;;;;;;;5.25;3.22;;;9.60;80.00;;;;;;5093852;28;20019;-80
2021/11/30 07:20:58;;;;;;;5.03;3.00;;;9.60;80.10;;;;;;5094082;28;20024;-79
2021/11/30 07:23:24;;;;;;;5.57;3.00;;;9.60;80.10;;;;;;5093856;28;20031;-79
2021/11/30 07:25:54;;;;;;;4.50;2.58;;;9.50;80.20;;;;;;5088792;28;20081;-78
2021/11/30 07:28:28;;;;;;;5.60;2.90;;;9.60;80.30;;;;;;5073268;28;20024;-78
2021/11/30 07:30:54;;;;;;;8.32;3.03;;;9.60;80.30;;;;;;5091237;28;20016;-78
2021/11/30 07:33:21;;;;;;;5.55;3.00;;;9.60;80.40;;;;;;5072410;28;20048;-78
2021/11/30 07:35:46;;;;;;;7.00;2.95;;;9.60;80.50;;;;;;5073092;28;20024;-77
2021/11/30 07:38:12;;;;;;;6.68;2.70;;;9.60;80.60;;;;;;5076753;28;20115;-78
2021/11/30 07:40:37;;;;;;;6.75;2.42;;;9.60;80.70;;;;;;5077486;28;20023;-78
2021/11/30 07:43:04;;;;;;;4.72;2.50;;;9.50;80.70;;;;;;5095310;28;20036;-78
2021/11/30 07:45:29;;;;;;;4.47;2.55;;;9.60;81.40;;;;;;5077294;28;20036;-78
2021/11/30 07:47:56;;;;;;;4.80;2.30;;;9.60;80.90;;;;;;5076908;28;20024;-78
2021/11/30 07:50:22;;;;;;;4.35;2.53;;;9.60;81.00;;;;;;5077180;28;20036;-79
2021/11/30 07:52:48;;;;;;;5.70;2.70;;;9.60;81.10;;;;;;5076950;28;20024;-78
2021/11/30 07:55:15;;;;;;;4.05;2.03;;;9.60;81.10;;;;;;5077108;28;20024;-78
2021/11/30 07:57:42;;;;;;;4.32;2.60;;;9.60;81.20;;;;;;5076800;28;20489;-79
2021/11/30 08:00:14;;;;;;;5.43;2.47;;;9.60;81.30;;;;;;5076944;28;20028;-78
2021/11/30 08:02:40;;;;;;;3.65;2.42;;;9.50;81.30;;;;;;5076833;28;20546;-79
2021/11/30 08:05:07;;;;;;;4.22;2.60;;;9.60;81.50;;;;;;5076801;28;20127;-78
2021/11/30 08:07:33;;;;;;;3.08;2.17;;;9.50;81.40;;;;;;5076432;28;20462;-78
2021/11/30 08:09:59;;;;;;;3.85;2.40;;;9.60;81.80;;;;;;5076606;28;20110;-78
2021/11/30 08:12:25;;;;;;;3.35;2.25;;;9.60;81.70;;;;;;5076348;28;20032;-78
2021/11/30 08:14:51;;;;;;;3.20;2.20;;;9.50;81.60;;;;;;5076808;28;20070;-78
2021/11/30 08:17:18;;;;;;;3.25;2.20;;;9.60;81.80;;;;;;5076357;28;20035;-78
2021/11/30 08:19:47;;;;;;;3.70;2.30;;;9.60;81.80;;;;;;5076580;28;20016;-78
2021/11/30 08:22:13;;;;;;;3.22;2.10;;;9.60;81.90;;;;;;5076377;28;20030;-78
2021/11/30 08:24:38;;;;;;;2.60;1.95;;;9.60;81.90;;;;;;5076561;28;20056;-78
2021/11/30 08:27:05;;;;;;;3.17;1.90;;;9.60;82.00;;;;;;5076289;28;20169;-78
2021/11/30 08:29:34;;;;;;;3.83;1.92;;;9.60;81.90;;;;;;5076462;28;20031;-78
2021/11/30 08:32:01;;;;;;;3.08;2.20;;;9.50;82.00;;;;;;5076016;28;20111;-78
2021/11/30 08:34:27;;;;;;;3.17;2.15;;;9.50;82.00;;;;;;5076329;28;20048;-78
2021/11/30 08:36:53;;;;;;;3.63;2.17;;;9.60;82.10;;;;;;5075832;28;20029;-78
2021/11/30 08:39:19;;;;;;;2.97;1.80;;;9.60;82.20;;;;;;5094252;28;20028;-78
2021/11/30 08:41:44;;;;;;;3.45;2.30;;;9.50;82.10;;;;;;5076067;28;20111;-78
2021/11/30 08:44:10;;;;;;;3.08;1.90;;;9.50;82.20;;;;;;5076208;28;20035;-78
2021/11/30 08:46:35;;;;;;;3.35;2.00;;;9.60;82.30;;;;;;5075925;28;20035;-77
2021/11/30 08:49:01;;;;;;;3.05;1.70;;;9.50;82.30;;;;;;5074943;28;20427;-78
2021/11/30 08:51:27;;;;;;;3.58;2.03;;;9.60;82.40;;;;;;5075888;28;20039;-78
2021/11/30 08:53:52;;;;;;;3.47;2.10;;;9.60;82.50;;;;;;5075888;28;20485;-78
2021/11/30 08:56:18;;;;;;;3.22;1.90;;;9.70;82.70;;;;;;5075836;28;20024;-79
2021/11/30 08:58:44;;;;;;;3.38;1.92;;;9.60;82.40;;;;;;5075596;28;20499;-78
2021/11/30 09:01:11;;;;;;;2.15;1.73;;;9.50;82.40;;;;;;5075944;28;20030;-79
2021/11/30 09:03:37;;;;;;;3.03;1.80;;;9.60;82.20;;;;;;5075753;28;20024;-78
2021/11/30 09:06:02;;;;;;;3.00;1.92;;;9.50;82.30;;;;;;5075557;28;20401;-78
2021/11/30 09:08:28;;;;;;;2.38;1.77;;;9.70;82.10;;;;;;5075476;28;20125;-78
2021/11/30 09:10:54;;;;;;;1.83;1.60;;;9.60;82.20;;;;;;5093544;28;20031;-78
2021/11/30 09:13:20;;;;;;;3.00;1.92;;;9.60;82.10;;;;;;5093305;28;20465;-78
2021/11/30 09:15:46;;;;;;;2.20;1.63;;;9.70;82.10;;;;;;5075555;28;20054;-78
2021/11/30 09:18:12;;;;;;;1.55;1.25;;;9.70;81.90;;;;;;5075156;28;20024;-78
2021/11/30 09:20:37;;;;;;;2.33;1.58;;;9.70;82.00;;;;;;5075314;28;20031;-78
2021/11/30 09:23:03;;;;;;;2.22;1.50;;;9.60;82.10;;;;;;5075305;28;20502;-78
2021/11/30 09:25:29;;;;;;;2.22;1.30;;;9.60;82.20;;;;;;5075524;28;20169;-78
2021/11/30 09:27:57;;;;;;;1.90;1.50;;;9.80;82.20;;;;;;5075032;28;20050;-78
2021/11/30 09:30:25;;;;;;;1.83;1.40;;;9.70;82.20;;;;;;5075343;28;20024;-78
2021/11/30 09:32:51;;;;;;;1.90;1.38;;;9.80;82.10;;;;;;5075288;28;20039;-78
2021/11/30 09:35:21;;;;;;;1.85;1.48;;;9.70;82.30;;;;;;5075054;28;20028;-80
2021/11/30 09:37:50;;;;;;;1.70;1.20;;;9.70;82.10;;;;;;5074396;28;20017;-78
2021/11/30 09:40:19;;;;;;;1.40;1.17;;;9.60;82.20;;;;;;5093225;28;20024;-79
2021/11/30 09:42:47;;;;;;;1.98;1.23;;;9.80;82.30;;;;;;5093033;28;20035;-78
2021/11/30 09:45:13;;;;;;;2.17;1.40;;;9.60;82.50;;;;;;5074823;28;20513;-78
2021/11/30 09:47:41;;;;;;;1.55;1.23;;;9.80;82.50;;;;;;5074769;28;20067;-78
2021/11/30 09:50:13;;;;;;;2.35;1.48;;;9.80;82.60;;;;;;5074705;28;20524;-78
2021/11/30 09:52:39;;;;;;;1.42;1.10;;;9.70;82.70;;;;;;5074722;28;20028;-78
2021/11/30 09:55:08;;;;;;;2.25;1.20;;;9.70;82.80;;;;;;5074722;28;20048;-78
2021/11/30 09:57:34;;;;;;;2.65;1.27;;;9.70;83.50;;;;;;5092549;28;20024;-79
2021/11/30 10:00:00;;;;;;;1.95;1.38;;;9.70;83.60;;;;;;5092728;28;20389;-79
2021/11/30 10:02:25;;;;;;;1.50;1.13;;;9.70;83.80;;;;;;5074520;28;20031;-80
2021/11/30 10:04:51;;;;;;;4.25;1.20;;;9.70;84.10;;;;;;5074561;28;20020;-79
2021/11/30 10:07:34;;;;;;;1.98;1.25;;;9.60;84.40;;;;;;5092402;28;20427;-78
2021/11/30 10:10:21;;;;;;;2.42;1.20;;;9.60;84.70;;;;;;5074696;28;20031;-78
2021/11/30 10:13:07;;;;;;;2.10;1.10;;;9.70;85.00;;;;;;5074366;28;20031;-79
2021/11/30 10:15:47;;;;;;;1.85;1.00;;;9.60;85.20;;;;;;5074411;28;20027;-78
2021/11/30 10:18:24;;;;;;;1.70;1.03;;;9.50;85.40;;;;;;5092433;28;20108;-78
2021/11/30 10:21:12;;;;;;;2.08;0.90;;;9.50;85.50;;;;;;5092871;28;20020;-78
2021/11/30 10:24:01;;;;;;;2.45;1.23;;;9.60;85.80;;;;;;5073688;28;20056;-78
2021/11/30 10:26:35;;;;;;;1.75;1.00;;;9.50;85.90;;;;;;5074414;28;20024;-78
2021/11/30 10:29:07;;;;;;;1.90;0.90;;;9.60;86.00;;;;;;5074290;28;20021;-78
2021/11/30 10:31:39;;;;;;;1.25;1.00;;;9.60;86.10;;;;;;5074178;28;20027;-78
2021/11/30 10:34:12;;;;;;;2.10;1.00;;;9.50;86.10;;;;;;5074022;28;20047;-78
2021/11/30 10:36:48;;;;;;;2.08;0.93;;;9.60;86.20;;;;;;5073734;28;20020;-77
2021/11/30 10:39:26;;;;;;;3.17;0.90;;;9.60;86.30;;;;;;5074259;28;20346;-78
2021/11/30 10:41:53;;;;;;;3.20;0.93;;;9.50;86.30;;;;;;5074102;28;20020;-81
2021/11/30 10:44:31;;;;;;;1.58;0.80;;;9.60;86.40;;;;;;5091923;28;20077;-78
2021/11/30 10:47:12;;;;;;;2.95;0.90;;;9.50;86.40;;;;;;5073814;28;20510;-78
2021/11/30 10:49:50;;;;;;;2.55;0.80;;;9.50;86.50;;;;;;5092010;28;20028;-78
2021/11/30 10:52:22;;;;;;;3.05;0.90;;;9.50;86.60;;;;;;5073787;28;20123;-78
2021/11/30 10:54:50;;;;;;;3.22;0.85;;;9.60;86.70;;;;;;5074083;28;20412;-78
2021/11/30 10:57:15;;;;;;;2.25;0.80;;;9.60;86.80;;;;;;5073688;28;20021;-79
2021/11/30 10:59:41;;;;;;;2.20;0.80;;;9.50;86.80;;;;;;5074061;28;20073;-79
2021/11/30 11:02:07;;;;;;;3.08;0.90;;;9.60;87.00;;;;;;5073744;28;20512;-79
2021/11/30 11:04:33;;;;;;;3.10;1.10;;;9.60;87.10;;;;;;5073813;28;20040;-78
2021/11/30 11:07:07;;;;;;;3.33;1.00;;;9.50;87.10;;;;;;5073549;28;20020;-78
2021/11/30 11:09:49;;;;;;;2.90;1.00;;;9.60;87.20;;;;;;5074024;28;20501;-78
2021/11/30 11:12:27;;;;;;;2.70;0.82;;;9.60;87.20;;;;;;5075577;28;20028;-79
2021/11/30 11:14:54;;;;;;;1.75;0.80;;;9.60;87.30;;;;;;5078148;28;20546;-79
2021/11/30 11:17:31;;;;;;;3.33;0.93;;;9.60;87.40;;;;;;5077549;28;20119;-78
2021/11/30 11:19:58;;;;;;;2.72;0.80;;;9.50;87.40;;;;;;5077812;28;20031;-78
2021/11/30 11:22:27;;;;;;;4.88;1.10;;;9.50;87.40;;;;;;5095900;28;20032;-80
2021/11/30 11:24:57;;;;;;;2.60;0.80;;;9.60;87.50;;;;;;5077683;28;20066;-78
2021/11/30 11:27:34;;;;;;;1.93;1.03;;;9.60;87.60;;;;;;5077244;28;20114;-78
2021/11/30 11:30:03;;;;;;;4.05;0.90;;;9.60;87.60;;;;;;5077487;28;20031;-79
2021/11/30 11:32:29;;;;;;;2.60;0.80;;;9.60;87.60;;;;;;5077387;28;20031;-78
2021/11/30 11:34:56;;;;;;;3.92;1.20;;;9.60;87.70;;;;;;5077386;28;20016;-79
2021/11/30 11:37:22;;;;;;;3.53;1.00;;;9.60;87.70;;;;;;5076898;28;20020;-78
2021/11/30 11:39:48;;;;;;;3.42;1.15;;;9.60;87.80;;;;;;5095406;28;20366;-78
2021/11/30 11:42:15;;;;;;;3.45;1.23;;;9.60;87.80;;;;;;5077288;28;20024;-78
2021/11/30 11:44:41;;;;;;;5.20;1.30;;;9.50;87.90;;;;;;5077141;28;20089;-78
2021/11/30 11:47:14;;;;;;;4.68;1.17;;;9.50;88.00;;;;;;5076892;28;20024;-78
2021/11/30 11:49:46;;;;;;;3.67;0.82;;;9.60;88.10;;;;;;5077218;28;20111;-79
2021/11/30 11:52:27;;;;;;;3.85;1.15;;;9.50;88.10;;;;;;5095095;28;20091;-79
2021/11/30 11:55:06;;;;;;;4.00;1.00;;;9.60;88.10;;;;;;5077097;28;20024;-78
2021/11/30 11:57:33;;;;;;;4.25;1.33;;;9.60;88.20;;;;;;5076780;28;20024;-79
2021/11/30 12:00:19;;;;;;;2.97;1.10;;;9.60;88.20;;;;;;5095247;28;20016;-79
2021/11/30 12:02:53;;;;;;;3.80;1.27;;;9.60;88.40;;;;;;5076604;28;20035;-78
2021/11/30 12:05:37;;;;;;;2.55;0.90;;;9.60;88.50;;;;;;5095128;28;20046;-79
2021/11/30 12:08:03;;;;;;;4.82;1.20;;;9.70;88.60;;;;;;5076695;28;20389;-79
2021/11/30 12:10:32;;;;;;;4.60;1.17;;;9.60;88.50;;;;;;5076757;28;20035;-79
2021/11/30 12:13:00;;;;;;;5.18;1.30;;;9.60;88.50;;;;;;5154541;22;20405;-78
2021/11/30 12:15:53;;;;;;;4.47;1.13;;;9.60;88.60;;;;;;5095183;28;20048;-77
2021/11/30 12:18:34;;;;;;;3.92;1.23;;;9.60;88.60;;;;;;5094041;28;20099;-78
2021/11/30 12:21:22;;;;;;;5.32;1.30;;;9.60;88.70;;;;;;5076603;28;20027;-79
2021/11/30 12:23:53;;;;;;;4.25;1.25;;;9.60;88.70;;;;;;5088782;28;20489;-77
2021/11/30 12:26:42;;;;;;;2.78;0.98;;;9.60;88.70;;;;;;5115342;28;20034;-77
2021/11/30 12:29:17;;;;;;;4.25;1.10;;;9.60;88.70;;;;;;5096727;28;20030;-78
2021/11/30 12:31:42;;;;;;;5.07;1.27;;;9.70;88.80;;;;;;5114932;28;20023;-77
2021/11/30 12:34:09;;;;;;;4.40;1.23;;;9.60;88.70;;;;;;5096659;28;20030;-77
2021/11/30 12:36:43;;;;;;;3.05;1.08;;;9.60;88.70;;;;;;5114169;28;20020;-79
2021/11/30 12:39:11;;;;;;;4.85;1.10;;;9.60;88.80;;;;;;5096677;28;20024;-77
2021/11/30 12:41:38;;;;;;;6.13;1.42;;;9.50;88.70;;;;;;5114865;28;20492;-77
2021/11/30 12:44:14;;;;;;;5.53;1.27;;;9.50;88.70;;;;;;5114545;28;20030;-77
2021/11/30 12:46:53;;;;;;;4.65;1.10;;;9.60;88.70;;;;;;5114361;28;20484;-77
2021/11/30 12:49:25;;;;;;;7.57;1.30;;;9.60;89.20;;;;;;5096191;28;20480;-77
2021/11/30 12:52:16;;;;;;;6.68;1.27;;;9.60;88.60;;;;;;5096399;28;20024;-77
2021/11/30 12:54:48;;;;;;;4.22;0.98;;;9.60;88.60;;;;;;5096196;28;20488;-77
2021/11/30 12:57:33;;;;;;;5.82;1.30;;;9.60;88.60;;;;;;5096103;28;20023;-79
2021/11/30 13:00:18;;;;;;;5.65;1.30;;;9.60;88.50;;;;;;5107097;28;20035;-78
2021/11/30 13:02:46;;;;;;;4.68;1.00;;;9.60;88.60;;;;;;5097018;28;20024;-79
2021/11/30 13:05:13;;;;;;;7.38;1.40;;;9.60;88.50;;;;;;5096579;28;20027;-79
2021/11/30 13:07:48;;;;;;;5.75;1.05;;;9.60;88.50;;;;;;5096379;28;20503;-78
2021/11/30 13:10:44;;;;;;;5.88;1.20;;;9.60;88.50;;;;;;5096654;28;20055;-77
2021/11/30 13:13:18;;;;;;;4.10;1.10;;;9.60;88.40;;;;;;5096239;28;20066;-78